KSIY/SIY METAR and TAF weather

Enter ICAO airport designator
Station Type Date Time Source
KSIY METAR 2024/07/15 22:06 UTC NOAA

KSIY 152206Z AUTO 31014G31KT 10SM -RA FEW037 SCT065 BKN110 31/07 A3006 RMK AO2 PK WND 29033/2154 WSHFT 2146 P0000 T03110067


Station Type Date Time Source
KSIY Decoded METAR 2024/07/15 22:06 UTC NOAA

MONTAGUE SISKIYOU COUNTY, CA, United States (KSIY) 41-46N 122-28W
Jul 15, 2024 - 06:06 PM EDT / 2024.07.15 2206 UTC
Wind: from the NW (310 degrees) at 16 MPH (14 KT) gusting to 36 MPH (31 KT):0
Visibility: 10 mile(s):0
Sky conditions: mostly cloudy
Weather: light rain
Precipitation last hour: A trace
Temperature: 88.0 F (31.1 C)
Dew Point: 44.1 F (6.7 C)
Relative Humidity: 21%
Pressure (altimeter): 30.06 in. Hg (1017 hPa)
ob: KSIY 152206Z AUTO 31014G31KT 10SM -RA FEW037 SCT065 BKN110 31/07 A3006 RMK AO2 PK WND 29033/2154 WSHFT 2146 P0000 T03110067
cycle: 22

Station Type Date Time Source
KSIY TAF UTC NOAA

Error!

Example: see airport list